createdAt,value
2018-09-22T00:00:50.246Z,2.10
2018-09-22T00:05:53.512Z,2.10
2018-09-22T00:10:56.808Z,2.47
2018-09-22T00:16:01.241Z,1.60
2018-09-22T00:21:04.479Z,2.33
2018-09-22T00:26:07.949Z,1.70
2018-09-22T00:31:11.212Z,1.80
2018-09-22T00:36:14.552Z,1.70
2018-09-22T00:41:17.780Z,2.07
2018-09-22T00:46:21.000Z,2.20
2018-09-22T00:51:24.303Z,1.83
2018-09-22T00:56:27.622Z,1.80
2018-09-22T01:01:31.003Z,2.13
2018-09-22T01:06:34.188Z,1.60
2018-09-22T01:11:37.892Z,2.37
2018-09-22T01:16:41.458Z,2.13
2018-09-22T01:21:44.672Z,2.00
2018-09-22T01:26:48.237Z,1.87
2018-09-22T01:31:51.424Z,2.00
2018-09-22T01:36:54.676Z,1.60
2018-09-22T01:41:57.960Z,2.07
2018-09-22T01:47:01.196Z,2.57
2018-09-22T01:52:04.399Z,1.90
2018-09-22T01:57:07.653Z,1.70
2018-09-22T02:02:10.859Z,1.90
2018-09-22T02:07:14.101Z,1.57
2018-09-22T02:12:17.412Z,2.50
2018-09-22T02:17:20.626Z,1.60
2018-09-22T02:22:24.275Z,1.97
2018-09-22T02:27:27.473Z,1.83
2018-09-22T02:32:30.663Z,1.50
2018-09-22T02:37:33.880Z,1.67
2018-09-22T02:42:37.108Z,1.37
2018-09-22T02:47:40.339Z,1.50
2018-09-22T02:52:43.563Z,1.40
2018-09-22T02:57:46.829Z,2.00
2018-09-22T03:02:50.093Z,1.60
2018-09-22T03:07:53.431Z,1.87
2018-09-22T03:12:56.683Z,2.03
2018-09-22T03:17:59.905Z,2.10
2018-09-22T03:23:03.084Z,1.83
2018-09-22T03:28:06.286Z,3.00
2018-09-22T03:33:09.507Z,1.80
2018-09-22T03:38:12.732Z,2.00
2018-09-22T03:43:15.941Z,2.80
2018-09-22T03:48:19.192Z,1.80
2018-09-22T03:53:22.371Z,2.53
2018-09-22T03:58:25.572Z,2.77
2018-09-22T04:03:28.768Z,1.90
2018-09-22T04:08:31.975Z,2.47
2018-09-22T04:13:35.210Z,2.50
2018-09-22T04:18:38.432Z,2.40
2018-09-22T04:23:41.643Z,2.43
2018-09-22T04:28:45.053Z,2.40
2018-09-22T04:33:48.261Z,2.10
2018-09-22T04:38:51.514Z,2.07
2018-09-22T04:43:54.724Z,1.80
2018-09-22T04:48:57.944Z,2.17
2018-09-22T04:54:01.168Z,2.40
2018-09-22T04:59:04.360Z,2.77
2018-09-22T05:04:07.567Z,4.57
2018-09-22T05:09:12.152Z,2.37
2018-09-22T05:14:15.385Z,3.40
2018-09-22T05:19:18.605Z,2.30
2018-09-22T05:24:21.887Z,2.40
2018-09-22T05:29:25.083Z,2.90
2018-09-22T05:34:28.304Z,2.77
2018-09-22T05:39:31.533Z,3.00
2018-09-22T05:44:34.699Z,2.73
2018-09-22T05:49:37.920Z,2.40
2018-09-22T05:54:41.120Z,2.60
2018-09-22T05:59:44.324Z,2.80
2018-09-22T06:04:47.580Z,2.40
2018-09-22T06:09:50.806Z,2.03
2018-09-22T06:14:54.005Z,3.47
2018-09-22T06:19:57.227Z,2.50
2018-09-22T06:25:00.474Z,2.20
2018-09-22T06:30:03.675Z,2.07
2018-09-22T06:35:06.895Z,3.03
2018-09-22T06:40:10.146Z,2.00
2018-09-22T06:45:13.352Z,2.43
2018-09-22T06:50:16.691Z,2.50
2018-09-22T06:55:19.915Z,2.43
2018-09-22T07:00:23.145Z,2.57
2018-09-22T07:05:26.396Z,2.40
2018-09-22T07:10:29.592Z,2.33
2018-09-22T07:15:32.820Z,2.90
2018-09-22T07:20:36.048Z,2.57
2018-09-22T07:25:39.265Z,2.50
2018-09-22T07:30:42.523Z,2.30
2018-09-22T07:35:45.972Z,2.60
2018-09-22T07:40:49.192Z,2.57
2018-09-22T07:45:52.517Z,3.10
2018-09-22T07:50:55.573Z,3.17
2018-09-22T07:55:58.768Z,2.80
2018-09-22T08:01:02.289Z,2.50
2018-09-22T08:06:05.512Z,2.40
2018-09-22T08:11:08.719Z,2.70
2018-09-22T08:16:12.061Z,2.00
2018-09-22T08:21:15.277Z,2.60
2018-09-22T08:26:18.466Z,2.93
2018-09-22T08:31:21.684Z,2.03
2018-09-22T08:36:25.096Z,2.80
2018-09-22T08:41:28.127Z,2.30
2018-09-22T08:46:31.421Z,2.90
2018-09-22T08:51:34.881Z,2.97
2018-09-22T08:56:38.084Z,3.03
2018-09-22T09:01:41.305Z,2.00
2018-09-22T09:06:44.510Z,1.93
2018-09-22T09:11:47.688Z,2.43
2018-09-22T09:16:50.883Z,2.50
2018-09-22T09:21:54.056Z,2.23
2018-09-22T09:26:57.252Z,2.57
2018-09-22T09:32:00.448Z,2.30
2018-09-22T09:37:03.767Z,2.53
2018-09-22T09:42:06.990Z,2.10
2018-09-22T09:47:10.325Z,3.33
2018-09-22T09:52:13.533Z,3.10
2018-09-22T09:57:16.727Z,3.77
2018-09-22T10:02:19.914Z,3.13
2018-09-22T10:07:23.126Z,2.47
2018-09-22T10:12:26.358Z,2.10
2018-09-22T10:17:29.543Z,2.47
2018-09-22T10:22:32.723Z,2.20
2018-09-22T10:27:35.936Z,3.40
2018-09-22T10:32:39.152Z,2.43
2018-09-22T10:37:42.398Z,5.73
2018-09-22T10:42:45.801Z,6.43
2018-09-22T10:47:48.992Z,5.13
2018-09-22T10:52:52.266Z,4.63
2018-09-22T10:57:55.409Z,4.60
2018-09-22T11:02:58.609Z,5.10
2018-09-22T11:08:01.817Z,4.10
2018-09-22T11:13:05.063Z,5.80
2018-09-22T11:18:08.469Z,5.30
2018-09-22T11:23:11.757Z,5.03
2018-09-22T11:28:14.966Z,3.70
2018-09-22T11:33:18.407Z,4.10
2018-09-22T11:38:21.700Z,6.00
2018-09-22T11:43:25.116Z,3.90
2018-09-22T11:48:28.327Z,3.10
2018-09-22T11:53:31.539Z,2.30
2018-09-22T11:58:34.787Z,3.30
2018-09-22T12:03:38.000Z,2.57
2018-09-22T12:08:41.233Z,1.60
2018-09-22T12:13:44.447Z,1.70
2018-09-22T12:18:47.635Z,1.67
2018-09-22T12:23:50.839Z,1.53
2018-09-22T12:28:54.147Z,1.40
2018-09-22T12:33:57.340Z,1.63
2018-09-22T12:39:00.584Z,1.10
2018-09-22T12:44:04.129Z,1.70
2018-09-22T12:49:07.386Z,1.90
2018-09-22T12:54:10.595Z,1.33
2018-09-22T12:59:13.795Z,1.53
2018-09-22T13:04:17.021Z,1.90
2018-09-22T13:09:20.220Z,1.70
2018-09-22T13:14:23.439Z,1.40
2018-09-22T13:19:26.652Z,1.70
2018-09-22T13:24:29.852Z,1.90
2018-09-22T13:29:33.065Z,1.20
2018-09-22T13:34:36.369Z,1.70
2018-09-22T13:39:39.606Z,1.23
2018-09-22T13:44:42.841Z,1.80
2018-09-22T13:49:46.100Z,2.33
2018-09-22T13:54:49.304Z,1.40
2018-09-22T13:59:52.524Z,2.37
2018-09-22T14:04:55.756Z,1.80
2018-09-22T14:09:59.002Z,1.70
2018-09-22T14:15:02.417Z,1.93
2018-09-22T14:20:05.778Z,1.80
2018-09-22T14:25:08.982Z,1.40
2018-09-22T14:30:12.213Z,2.13
2018-09-22T14:35:15.444Z,2.33
2018-09-22T14:40:19.752Z,1.70
2018-09-22T14:45:22.978Z,1.90
2018-09-22T14:50:26.206Z,2.07
2018-09-22T14:55:30.168Z,1.40
2018-09-22T15:00:38.309Z,1.70
2018-09-22T15:05:41.945Z,1.70
2018-09-22T15:10:45.142Z,1.53
2018-09-22T15:15:48.396Z,1.73
2018-09-22T15:20:51.691Z,2.10
2018-09-22T15:25:54.902Z,2.00
2018-09-22T15:30:58.192Z,1.50
2018-09-22T15:36:01.440Z,1.60
2018-09-22T15:41:04.736Z,1.90
2018-09-22T15:46:07.950Z,1.80
2018-09-22T15:51:11.141Z,1.70
2018-09-22T15:56:14.355Z,1.47
2018-09-22T16:01:17.597Z,2.60
2018-09-22T16:06:20.930Z,1.20
2018-09-22T16:11:24.163Z,2.03
2018-09-22T16:16:27.400Z,2.27
2018-09-22T16:21:31.031Z,1.20
2018-09-22T16:26:34.222Z,1.60
2018-09-22T16:31:37.472Z,1.73
2018-09-22T16:36:40.721Z,1.33
2018-09-22T16:41:43.916Z,1.37
2018-09-22T16:46:47.175Z,1.53
2018-09-22T16:51:50.417Z,1.23
2018-09-22T16:56:53.686Z,1.10
2018-09-22T17:01:57.756Z,1.30
2018-09-22T17:07:00.964Z,1.20
2018-09-22T17:12:04.268Z,1.27
2018-09-22T17:17:07.641Z,1.83
2018-09-22T17:22:10.918Z,1.43
2018-09-22T17:27:14.164Z,1.40
2018-09-22T17:32:17.393Z,1.27
2018-09-22T17:37:20.596Z,1.60
2018-09-22T17:42:23.823Z,1.40
2018-09-22T17:47:27.089Z,1.30
2018-09-22T17:52:30.304Z,1.60
2018-09-22T17:57:33.512Z,1.20
2018-09-22T18:02:36.720Z,1.50
2018-09-22T18:07:39.951Z,1.10
2018-09-22T18:12:43.160Z,1.30
2018-09-22T18:17:46.384Z,1.57
2018-09-22T18:22:49.944Z,1.27
2018-09-22T18:27:53.501Z,1.40
2018-09-22T18:32:56.668Z,1.37
2018-09-22T18:37:59.877Z,1.40
2018-09-22T18:43:03.133Z,1.23
2018-09-22T18:48:06.392Z,1.40
2018-09-22T18:53:09.605Z,1.37
2018-09-22T18:58:12.822Z,1.00
2018-09-22T19:03:16.032Z,1.40
2018-09-22T19:08:19.244Z,1.30
2018-09-22T19:13:26.030Z,1.03
2018-09-22T19:18:44.136Z,1.17
2018-09-22T19:23:52.896Z,1.40
2018-09-22T19:28:59.483Z,1.63
2018-09-22T19:34:06.680Z,1.10
2018-09-22T19:39:14.796Z,1.27
2018-09-22T19:44:28.958Z,0.83
2018-09-22T19:49:35.748Z,1.20
2018-09-22T19:54:38.967Z,1.13
2018-09-22T19:59:42.184Z,1.47
2018-09-22T20:04:45.412Z,1.53
2018-09-22T20:09:48.620Z,1.27
2018-09-22T20:14:51.856Z,2.00
2018-09-22T20:19:55.521Z,1.40
2018-09-22T20:24:58.717Z,0.97
2018-09-22T20:30:01.956Z,1.30
2018-09-22T20:35:05.176Z,1.30
2018-09-22T20:40:08.480Z,1.27
2018-09-22T20:45:11.727Z,0.97
2018-09-22T20:50:14.929Z,1.43
2018-09-22T20:55:18.164Z,1.50
2018-09-22T21:00:21.369Z,2.20
2018-09-22T21:05:24.584Z,1.23
2018-09-22T21:10:27.804Z,1.10
2018-09-22T21:15:31.004Z,1.30
2018-09-22T21:20:34.201Z,1.43
2018-09-22T21:25:37.384Z,1.30
2018-09-22T21:30:40.625Z,1.20
2018-09-22T21:35:43.804Z,1.40
2018-09-22T21:40:47.130Z,1.07
2018-09-22T21:45:50.391Z,1.30
2018-09-22T21:50:54.296Z,1.07
2018-09-22T21:55:57.493Z,1.23
2018-09-22T22:01:00.699Z,1.23
2018-09-22T22:06:03.913Z,1.10
2018-09-22T22:11:07.126Z,1.07
2018-09-22T22:16:10.312Z,1.13
2018-09-22T22:21:13.527Z,1.67
2018-09-22T22:26:16.737Z,1.43
2018-09-22T22:31:19.939Z,1.40
2018-09-22T22:36:23.164Z,1.53
2018-09-22T22:41:26.415Z,1.00
2018-09-22T22:46:29.645Z,1.23
2018-09-22T22:51:32.868Z,0.93
2018-09-22T22:56:36.076Z,1.10
2018-09-22T23:01:39.272Z,1.23
2018-09-22T23:06:42.552Z,1.30
2018-09-22T23:11:45.748Z,0.70
2018-09-22T23:16:48.953Z,1.20
2018-09-22T23:21:52.148Z,1.00
2018-09-22T23:26:55.345Z,1.10
2018-09-22T23:31:58.530Z,1.20
2018-09-22T23:37:01.764Z,1.20
2018-09-22T23:42:05.014Z,1.37
2018-09-22T23:47:08.332Z,1.40
2018-09-22T23:52:11.564Z,1.50
2018-09-22T23:57:14.776Z,1.10
